sensor_id;sensor_type;location;lat;lon;timestamp;temperature;humidity
21672;DHT22;10997;52.242;8.168;2022-09-01T00:01:17;12.00;99.90
21672;DHT22;10997;52.242;8.168;2022-09-01T00:06:22;11.90;99.90
21672;DHT22;10997;52.242;8.168;2022-09-01T00:11:24;11.80;99.90
21672;DHT22;10997;52.242;8.168;2022-09-01T00:16:25;11.80;99.90
21672;DHT22;10997;52.242;8.168;2022-09-01T00:21:30;11.80;99.90
21672;DHT22;10997;52.242;8.168;2022-09-01T00:26:31;11.70;99.90
21672;DHT22;10997;52.242;8.168;2022-09-01T00:31:33;11.60;99.90
21672;DHT22;10997;52.242;8.168;2022-09-01T00:36:34;11.60;99.90
21672;DHT22;10997;52.242;8.168;2022-09-01T00:41:37;11.60;99.90
21672;DHT22;10997;52.242;8.168;2022-09-01T00:46:43;11.50;99.90
21672;DHT22;10997;52.242;8.168;2022-09-01T00:51:49;11.40;99.90
21672;DHT22;10997;52.242;8.168;2022-09-01T00:56:50;11.30;99.90
21672;DHT22;10997;52.242;8.168;2022-09-01T01:01:52;11.30;99.90
21672;DHT22;10997;52.242;8.168;2022-09-01T01:06:55;11.20;99.90
21672;DHT22;10997;52.242;8.168;2022-09-01T01:12:03;11.20;99.90
21672;DHT22;10997;52.242;8.168;2022-09-01T01:17:05;11.20;99.90
21672;DHT22;10997;52.242;8.168;2022-09-01T01:22:12;11.00;99.90
21672;DHT22;10997;52.242;8.168;2022-09-01T01:27:33;11.00;99.90
21672;DHT22;10997;52.242;8.168;2022-09-01T01:32:34;10.90;99.90
21672;DHT22;10997;52.242;8.168;2022-09-01T01:37:35;10.90;99.90
21672;DHT22;10997;52.242;8.168;2022-09-01T01:42:36;10.90;99.90
21672;DHT22;10997;52.242;8.168;2022-09-01T01:47:38;10.90;99.90
21672;DHT22;10997;52.242;8.168;2022-09-01T01:52:39;10.90;99.90
21672;DHT22;10997;52.242;8.168;2022-09-01T01:57:41;10.80;99.90
21672;DHT22;10997;52.242;8.168;2022-09-01T02:02:49;10.80;99.90
21672;DHT22;10997;52.242;8.168;2022-09-01T02:07:54;10.80;99.90
21672;DHT22;10997;52.242;8.168;2022-09-01T02:12:57;10.80;99.90
21672;DHT22;10997;52.242;8.168;2022-09-01T02:18:03;10.60;99.90
21672;DHT22;10997;52.242;8.168;2022-09-01T02:23:04;10.60;99.90
21672;DHT22;10997;52.242;8.168;2022-09-01T02:28:11;10.50;99.90
21672;DHT22;10997;52.242;8.168;2022-09-01T02:33:18;10.50;99.90
21672;DHT22;10997;52.242;8.168;2022-09-01T02:38:19;10.50;99.90
21672;DHT22;10997;52.242;8.168;2022-09-01T02:43:20;10.50;99.90
21672;DHT22;10997;52.242;8.168;2022-09-01T02:48:27;10.50;99.90
21672;DHT22;10997;52.242;8.168;2022-09-01T02:53:29;10.40;99.90
21672;DHT22;10997;52.242;8.168;2022-09-01T02:58:30;10.40;99.90
21672;DHT22;10997;52.242;8.168;2022-09-01T03:03:34;10.30;99.90
21672;DHT22;10997;52.242;8.168;2022-09-01T03:08:35;10.30;99.90
21672;DHT22;10997;52.242;8.168;2022-09-01T03:13:39;10.30;99.90
21672;DHT22;10997;52.242;8.168;2022-09-01T03:18:40;10.30;99.90
21672;DHT22;10997;52.242;8.168;2022-09-01T03:23:45;10.10;99.90
21672;DHT22;10997;52.242;8.168;2022-09-01T03:28:48;10.00;99.90
21672;DHT22;10997;52.242;8.168;2022-09-01T03:33:49;9.90;99.90
21672;DHT22;10997;52.242;8.168;2022-09-01T03:38:51;9.90;99.90
21672;DHT22;10997;52.242;8.168;2022-09-01T03:43:51;10.00;99.90
21672;DHT22;10997;52.242;8.168;2022-09-01T03:48:56;10.00;99.90
21672;DHT22;10997;52.242;8.168;2022-09-01T03:53:58;10.10;99.90
21672;DHT22;10997;52.242;8.168;2022-09-01T03:58:59;10.00;99.90
21672;DHT22;10997;52.242;8.168;2022-09-01T04:04:00;10.00;99.90
21672;DHT22;10997;52.242;8.168;2022-09-01T04:09:01;10.00;99.90
21672;DHT22;10997;52.242;8.168;2022-09-01T04:14:02;10.00;99.90
21672;DHT22;10997;52.242;8.168;2022-09-01T04:19:03;10.00;99.90
21672;DHT22;10997;52.242;8.168;2022-09-01T04:24:15;9.90;99.90
21672;DHT22;10997;52.242;8.168;2022-09-01T04:29:17;9.90;99.90
21672;DHT22;10997;52.242;8.168;2022-09-01T04:34:20;9.80;99.90
21672;DHT22;10997;52.242;8.168;2022-09-01T04:39:22;9.90;99.90
21672;DHT22;10997;52.242;8.168;2022-09-01T04:44:23;9.80;99.90
21672;DHT22;10997;52.242;8.168;2022-09-01T04:49:24;9.80;99.90
21672;DHT22;10997;52.242;8.168;2022-09-01T04:54:26;9.80;99.90
21672;DHT22;10997;52.242;8.168;2022-09-01T04:59:28;9.80;99.90
21672;DHT22;10997;52.242;8.168;2022-09-01T05:04:31;9.80;99.90
21672;DHT22;10997;52.242;8.168;2022-09-01T05:09:34;9.90;99.90
21672;DHT22;10997;52.242;8.168;2022-09-01T05:14:41;9.90;99.90
21672;DHT22;10997;52.242;8.168;2022-09-01T05:19:45;10.00;99.90
21672;DHT22;10997;52.242;8.168;2022-09-01T05:24:47;10.10;99.90
21672;DHT22;10997;52.242;8.168;2022-09-01T05:29:50;10.20;99.90
21672;DHT22;10997;52.242;8.168;2022-09-01T05:34:53;10.20;99.90
21672;DHT22;10997;52.242;8.168;2022-09-01T05:39:54;10.20;99.90
21672;DHT22;10997;52.242;8.168;2022-09-01T05:44:55;10.30;99.90
21672;DHT22;10997;52.242;8.168;2022-09-01T05:49:57;10.40;99.90
21672;DHT22;10997;52.242;8.168;2022-09-01T05:54:59;10.60;99.90
21672;DHT22;10997;52.242;8.168;2022-09-01T06:00:04;10.90;99.90
21672;DHT22;10997;52.242;8.168;2022-09-01T06:05:11;11.20;99.90
21672;DHT22;10997;52.242;8.168;2022-09-01T06:10:13;11.40;99.90
21672;DHT22;10997;52.242;8.168;2022-09-01T06:15:14;11.60;99.90
21672;DHT22;10997;52.242;8.168;2022-09-01T06:20:15;11.80;99.90
21672;DHT22;10997;52.242;8.168;2022-09-01T06:25:19;11.90;99.90
21672;DHT22;10997;52.242;8.168;2022-09-01T06:30:20;12.20;99.90
21672;DHT22;10997;52.242;8.168;2022-09-01T06:35:22;12.40;99.90
21672;DHT22;10997;52.242;8.168;2022-09-01T06:40:29;12.60;99.90
21672;DHT22;10997;52.242;8.168;2022-09-01T06:45:30;12.80;99.90
21672;DHT22;10997;52.242;8.168;2022-09-01T06:50:31;13.10;99.90
21672;DHT22;10997;52.242;8.168;2022-09-01T06:55:32;13.20;99.90
21672;DHT22;10997;52.242;8.168;2022-09-01T07:00:35;13.40;99.90
21672;DHT22;10997;52.242;8.168;2022-09-01T07:05:43;13.60;99.90
21672;DHT22;10997;52.242;8.168;2022-09-01T07:10:49;13.90;99.90
21672;DHT22;10997;52.242;8.168;2022-09-01T07:15:50;14.10;99.90
21672;DHT22;10997;52.242;8.168;2022-09-01T07:20:53;14.50;99.90
21672;DHT22;10997;52.242;8.168;2022-09-01T07:25:54;14.70;99.90
21672;DHT22;10997;52.242;8.168;2022-09-01T07:30:58;14.90;99.90
21672;DHT22;10997;52.242;8.168;2022-09-01T07:35:59;15.30;99.90
21672;DHT22;10997;52.242;8.168;2022-09-01T07:41:01;15.60;99.90
21672;DHT22;10997;52.242;8.168;2022-09-01T07:46:03;15.90;99.90
21672;DHT22;10997;52.242;8.168;2022-09-01T07:51:04;16.30;99.90
21672;DHT22;10997;52.242;8.168;2022-09-01T07:56:09;16.60;99.90
21672;DHT22;10997;52.242;8.168;2022-09-01T08:01:14;17.00;99.90
21672;DHT22;10997;52.242;8.168;2022-09-01T08:06:20;17.20;99.90
21672;DHT22;10997;52.242;8.168;2022-09-01T08:11:24;17.50;99.90
21672;DHT22;10997;52.242;8.168;2022-09-01T08:16:27;17.70;99.90
21672;DHT22;10997;52.242;8.168;2022-09-01T08:21:28;18.00;99.90
21672;DHT22;10997;52.242;8.168;2022-09-01T08:26:29;18.20;99.90
21672;DHT22;10997;52.242;8.168;2022-09-01T08:31:30;18.40;99.90
21672;DHT22;10997;52.242;8.168;2022-09-01T08:36:32;18.50;99.90
21672;DHT22;10997;52.242;8.168;2022-09-01T08:41:43;18.70;99.90
21672;DHT22;10997;52.242;8.168;2022-09-01T08:46:44;18.80;99.90
21672;DHT22;10997;52.242;8.168;2022-09-01T08:56:53;19.00;99.90
21672;DHT22;10997;52.242;8.168;2022-09-01T09:17:49;20.00;99.90
21672;DHT22;10997;52.242;8.168;2022-09-01T09:22:52;20.30;99.90
21672;DHT22;10997;52.242;8.168;2022-09-01T09:27:54;20.50;99.90
21672;DHT22;10997;52.242;8.168;2022-09-01T09:38:22;20.60;99.90
21672;DHT22;10997;52.242;8.168;2022-09-01T09:43:31;21.00;99.90
21672;DHT22;10997;52.242;8.168;2022-09-01T09:48:32;21.20;99.90
21672;DHT22;10997;52.242;8.168;2022-09-01T09:53:34;21.40;99.90
21672;DHT22;10997;52.242;8.168;2022-09-01T09:58:40;21.60;99.90
21672;DHT22;10997;52.242;8.168;2022-09-01T10:03:45;21.90;99.90
21672;DHT22;10997;52.242;8.168;2022-09-01T10:08:48;22.00;99.90
21672;DHT22;10997;52.242;8.168;2022-09-01T10:13:51;22.10;99.60
21672;DHT22;10997;52.242;8.168;2022-09-01T10:18:53;22.00;98.60
21672;DHT22;10997;52.242;8.168;2022-09-01T10:24:07;22.10;98.40
21672;DHT22;10997;52.242;8.168;2022-09-01T10:29:18;22.30;97.90
21672;DHT22;10997;52.242;8.168;2022-09-01T10:34:21;22.90;96.40
21672;DHT22;10997;52.242;8.168;2022-09-01T10:39:22;23.20;94.80
21672;DHT22;10997;52.242;8.168;2022-09-01T10:59:40;24.50;89.90
21672;DHT22;10997;52.242;8.168;2022-09-01T11:15:49;25.10;82.70
21672;DHT22;10997;52.242;8.168;2022-09-01T11:20:37;25.10;83.10
21672;DHT22;10997;52.242;8.168;2022-09-01T11:25:50;25.30;81.60
21672;DHT22;10997;52.242;8.168;2022-09-01T11:46:55;26.10;78.70
21672;DHT22;10997;52.242;8.168;2022-09-01T11:51:58;26.00;78.80
21672;DHT22;10997;52.242;8.168;2022-09-01T11:57:19;26.10;77.60
21672;DHT22;10997;52.242;8.168;2022-09-01T12:02:29;25.70;77.20
21672;DHT22;10997;52.242;8.168;2022-09-01T12:12:39;26.60;77.00
21672;DHT22;10997;52.242;8.168;2022-09-01T12:17:40;26.30;74.70
21672;DHT22;10997;52.242;8.168;2022-09-01T12:22:41;26.00;74.30
21672;DHT22;10997;52.242;8.168;2022-09-01T12:27:42;26.00;73.80
21672;DHT22;10997;52.242;8.168;2022-09-01T12:32:45;26.10;72.30
21672;DHT22;10997;52.242;8.168;2022-09-01T12:37:46;26.10;73.50
21672;DHT22;10997;52.242;8.168;2022-09-01T12:42:50;25.90;73.50
21672;DHT22;10997;52.242;8.168;2022-09-01T12:47:51;26.30;74.00
21672;DHT22;10997;52.242;8.168;2022-09-01T12:52:56;26.60;71.40
21672;DHT22;10997;52.242;8.168;2022-09-01T12:58:03;26.30;70.40
21672;DHT22;10997;52.242;8.168;2022-09-01T13:03:11;26.30;69.40
21672;DHT22;10997;52.242;8.168;2022-09-01T13:08:17;26.60;69.10
21672;DHT22;10997;52.242;8.168;2022-09-01T13:13:18;26.70;68.10
21672;DHT22;10997;52.242;8.168;2022-09-01T13:18:22;26.60;67.10
21672;DHT22;10997;52.242;8.168;2022-09-01T13:23:23;26.40;67.00
21672;DHT22;10997;52.242;8.168;2022-09-01T13:28:25;26.50;66.90
21672;DHT22;10997;52.242;8.168;2022-09-01T13:33:26;26.10;65.90
21672;DHT22;10997;52.242;8.168;2022-09-01T13:38:27;26.10;65.90
21672;DHT22;10997;52.242;8.168;2022-09-01T13:43:28;26.20;65.60
21672;DHT22;10997;52.242;8.168;2022-09-01T13:48:30;25.80;65.20
21672;DHT22;10997;52.242;8.168;2022-09-01T13:53:34;25.90;65.70
21672;DHT22;10997;52.242;8.168;2022-09-01T13:58:35;26.20;64.50
21672;DHT22;10997;52.242;8.168;2022-09-01T14:03:36;26.50;62.50
21672;DHT22;10997;52.242;8.168;2022-09-01T14:08:37;26.10;61.10
21672;DHT22;10997;52.242;8.168;2022-09-01T14:13:38;26.30;62.00
21672;DHT22;10997;52.242;8.168;2022-09-01T14:18:40;26.30;60.20
21672;DHT22;10997;52.242;8.168;2022-09-01T14:23:42;26.30;59.90
21672;DHT22;10997;52.242;8.168;2022-09-01T14:28:43;25.90;59.40
21672;DHT22;10997;52.242;8.168;2022-09-01T14:33:45;26.00;60.10
21672;DHT22;10997;52.242;8.168;2022-09-01T14:38:46;26.00;59.30
21672;DHT22;10997;52.242;8.168;2022-09-01T14:43:52;26.20;59.70
21672;DHT22;10997;52.242;8.168;2022-09-01T14:48:53;26.20;59.00
21672;DHT22;10997;52.242;8.168;2022-09-01T14:53:54;26.50;58.80
21672;DHT22;10997;52.242;8.168;2022-09-01T14:58:55;26.10;58.60
21672;DHT22;10997;52.242;8.168;2022-09-01T15:03:59;25.90;59.10
21672;DHT22;10997;52.242;8.168;2022-09-01T15:14:50;25.80;59.00
21672;DHT22;10997;52.242;8.168;2022-09-01T15:19:51;25.90;58.70
21672;DHT22;10997;52.242;8.168;2022-09-01T15:24:52;25.90;58.70
21672;DHT22;10997;52.242;8.168;2022-09-01T15:29:53;26.00;58.50
21672;DHT22;10997;52.242;8.168;2022-09-01T15:34:55;25.70;59.20
21672;DHT22;10997;52.242;8.168;2022-09-01T15:39:56;25.60;58.40
21672;DHT22;10997;52.242;8.168;2022-09-01T15:44:56;25.80;58.50
21672;DHT22;10997;52.242;8.168;2022-09-01T15:49:57;25.70;58.30
21672;DHT22;10997;52.242;8.168;2022-09-01T15:54:58;25.60;58.30
21672;DHT22;10997;52.242;8.168;2022-09-01T15:59:58;25.50;58.30
21672;DHT22;10997;52.242;8.168;2022-09-01T16:04:59;25.30;58.80
21672;DHT22;10997;52.242;8.168;2022-09-01T16:10:00;25.40;59.00
21672;DHT22;10997;52.242;8.168;2022-09-01T16:15:01;25.50;58.60
21672;DHT22;10997;52.242;8.168;2022-09-01T16:20:09;25.50;59.20
21672;DHT22;10997;52.242;8.168;2022-09-01T16:25:23;25.60;58.70
21672;DHT22;10997;52.242;8.168;2022-09-01T16:30:28;25.50;58.40
21672;DHT22;10997;52.242;8.168;2022-09-01T16:35:50;25.50;58.20
21672;DHT22;10997;52.242;8.168;2022-09-01T17:07:56;24.40;59.30
21672;DHT22;10997;52.242;8.168;2022-09-01T17:13:41;24.30;59.80
21672;DHT22;10997;52.242;8.168;2022-09-01T17:19:17;24.10;60.10
21672;DHT22;10997;52.242;8.168;2022-09-01T17:29:37;24.00;61.00
21672;DHT22;10997;52.242;8.168;2022-09-01T17:45:47;23.30;62.40
21672;DHT22;10997;52.242;8.168;2022-09-01T18:06:35;22.30;65.00
21672;DHT22;10997;52.242;8.168;2022-09-01T18:11:47;22.00;65.70
21672;DHT22;10997;52.242;8.168;2022-09-01T18:17:21;21.70;66.50
21672;DHT22;10997;52.242;8.168;2022-09-01T18:22:24;21.40;67.00
21672;DHT22;10997;52.242;8.168;2022-09-01T18:27:25;21.10;67.80
21672;DHT22;10997;52.242;8.168;2022-09-01T18:32:42;20.90;68.50
21672;DHT22;10997;52.242;8.168;2022-09-01T18:53:21;20.20;70.00
21672;DHT22;10997;52.242;8.168;2022-09-01T19:09:33;19.70;71.70
21672;DHT22;10997;52.242;8.168;2022-09-01T19:14:45;19.50;73.00
21672;DHT22;10997;52.242;8.168;2022-09-01T19:19:57;19.20;74.70
21672;DHT22;10997;52.242;8.168;2022-09-01T19:25:04;18.90;76.30
21672;DHT22;10997;52.242;8.168;2022-09-01T19:30:24;18.60;77.70
21672;DHT22;10997;52.242;8.168;2022-09-01T19:35:26;18.40;78.90
21672;DHT22;10997;52.242;8.168;2022-09-01T19:40:33;18.30;80.60
21672;DHT22;10997;52.242;8.168;2022-09-01T19:45:46;18.10;81.60
21672;DHT22;10997;52.242;8.168;2022-09-01T19:51:07;17.90;82.70
21672;DHT22;10997;52.242;8.168;2022-09-01T20:01:50;17.50;84.70
21672;DHT22;10997;52.242;8.168;2022-09-01T20:06:58;17.40;85.30
21672;DHT22;10997;52.242;8.168;2022-09-01T20:12:12;17.20;86.40
21672;DHT22;10997;52.242;8.168;2022-09-01T20:17:22;17.20;87.30
21672;DHT22;10997;52.242;8.168;2022-09-01T20:33:34;16.80;89.60
21672;DHT22;10997;52.242;8.168;2022-09-01T20:44:17;16.40;91.00
21672;DHT22;10997;52.242;8.168;2022-09-01T20:49:20;16.30;92.10
21672;DHT22;10997;52.242;8.168;2022-09-01T20:59:46;16.00;92.80
21672;DHT22;10997;52.242;8.168;2022-09-01T21:04:57;15.80;93.40
21672;DHT22;10997;52.242;8.168;2022-09-01T21:25:59;15.50;94.40
21672;DHT22;10997;52.242;8.168;2022-09-01T21:31:00;15.60;93.80
21672;DHT22;10997;52.242;8.168;2022-09-01T21:36:03;15.60;93.70
21672;DHT22;10997;52.242;8.168;2022-09-01T21:41:04;15.50;94.10
21672;DHT22;10997;52.242;8.168;2022-09-01T21:46:07;15.30;94.50
21672;DHT22;10997;52.242;8.168;2022-09-01T21:51:08;15.20;95.00
21672;DHT22;10997;52.242;8.168;2022-09-01T21:56:08;15.20;95.10
21672;DHT22;10997;52.242;8.168;2022-09-01T22:01:09;15.40;94.10
21672;DHT22;10997;52.242;8.168;2022-09-01T22:06:11;15.50;93.30
21672;DHT22;10997;52.242;8.168;2022-09-01T22:11:12;15.50;93.30
21672;DHT22;10997;52.242;8.168;2022-09-01T22:16:17;15.30;94.00
21672;DHT22;10997;52.242;8.168;2022-09-01T22:21:19;15.10;94.90
21672;DHT22;10997;52.242;8.168;2022-09-01T22:26:22;14.90;95.70
21672;DHT22;10997;52.242;8.168;2022-09-01T22:31:28;14.80;96.30
21672;DHT22;10997;52.242;8.168;2022-09-01T22:36:34;14.60;96.90
21672;DHT22;10997;52.242;8.168;2022-09-01T22:41:37;14.60;97.60
21672;DHT22;10997;52.242;8.168;2022-09-01T22:46:39;14.50;98.10
21672;DHT22;10997;52.242;8.168;2022-09-01T22:51:41;14.50;98.40
21672;DHT22;10997;52.242;8.168;2022-09-01T22:56:42;14.50;98.60
21672;DHT22;10997;52.242;8.168;2022-09-01T23:01:45;14.50;98.60
21672;DHT22;10997;52.242;8.168;2022-09-01T23:06:48;14.40;98.60
21672;DHT22;10997;52.242;8.168;2022-09-01T23:11:50;14.30;98.70
21672;DHT22;10997;52.242;8.168;2022-09-01T23:16:50;14.30;99.00
21672;DHT22;10997;52.242;8.168;2022-09-01T23:21:52;14.30;99.20
21672;DHT22;10997;52.242;8.168;2022-09-01T23:26:53;14.20;99.50
21672;DHT22;10997;52.242;8.168;2022-09-01T23:31:54;14.20;99.70
21672;DHT22;10997;52.242;8.168;2022-09-01T23:36:54;14.20;99.90
21672;DHT22;10997;52.242;8.168;2022-09-01T23:41:55;14.20;99.90
21672;DHT22;10997;52.242;8.168;2022-09-01T23:46:57;14.10;99.90
21672;DHT22;10997;52.242;8.168;2022-09-01T23:51:59;14.10;99.90
21672;DHT22;10997;52.242;8.168;2022-09-01T23:57:00;14.20;99.90
